createdAt,value
2022-10-11T00:01:26.284Z,33.10
2022-10-11T00:03:57.651Z,34.40
2022-10-11T00:06:29.158Z,39.10
2022-10-11T00:09:00.705Z,39.80
2022-10-11T00:11:32.350Z,35.00
2022-10-11T00:14:03.771Z,39.00
2022-10-11T00:16:35.258Z,35.30
2022-10-11T00:19:06.819Z,34.30
2022-10-11T00:21:38.670Z,36.10
2022-10-11T00:24:12.010Z,35.40
2022-10-11T00:26:46.859Z,37.70
2022-10-11T00:29:18.965Z,32.40
2022-10-11T00:31:50.343Z,35.30
2022-10-11T00:34:21.768Z,35.80
2022-10-11T00:36:53.127Z,35.40
2022-10-11T00:39:24.648Z,39.00
2022-10-11T00:41:56.746Z,38.10
2022-10-11T00:44:30.319Z,35.10
2022-10-11T00:47:03.550Z,31.50
2022-10-11T00:49:41.949Z,35.60
2022-10-11T00:52:18.503Z,31.00
2022-10-11T00:54:51.316Z,37.80
2022-10-11T00:57:27.259Z,32.30
2022-10-11T00:59:59.769Z,34.00
2022-10-11T01:02:31.484Z,31.10
2022-10-11T01:05:27.555Z,30.70
2022-10-11T01:07:57.029Z,31.90
2022-10-11T01:10:28.891Z,31.10
2022-10-11T01:13:21.321Z,29.50
2022-10-11T01:16:00.461Z,29.40
2022-10-11T01:18:43.711Z,30.00
2022-10-11T01:21:27.236Z,32.10
2022-10-11T01:24:34.813Z,30.80
2022-10-11T01:27:40.877Z,27.20
2022-10-11T01:30:22.057Z,25.40
2022-10-11T01:33:06.514Z,27.80
2022-10-11T01:35:42.594Z,24.70
2022-10-11T01:38:22.947Z,24.30
2022-10-11T01:40:57.780Z,23.00
2022-10-11T01:43:30.058Z,27.10
2022-10-11T01:46:03.528Z,26.50
2022-10-11T01:51:05.788Z,21.70
2022-10-11T01:54:00.732Z,24.00
2022-10-11T01:56:50.544Z,23.50
2022-10-11T01:59:34.282Z,19.60
2022-10-11T02:02:20.386Z,21.90
2022-10-11T02:04:58.975Z,18.80
2022-10-11T02:07:39.567Z,19.00
2022-10-11T02:10:16.996Z,22.50
2022-10-11T02:12:55.084Z,17.90
2022-10-11T02:15:31.701Z,14.90
2022-10-11T02:18:07.697Z,17.00
2022-10-11T02:20:42.436Z,19.30
2022-10-11T02:23:17.980Z,14.90
2022-10-11T02:25:51.163Z,9.70
2022-10-11T02:28:26.387Z,11.30
2022-10-11T02:31:01.107Z,12.70
2022-10-11T02:33:37.443Z,11.80
2022-10-11T02:36:17.537Z,9.80
2022-10-11T02:38:54.022Z,9.40
2022-10-11T02:41:31.086Z,8.20
2022-10-11T02:44:08.996Z,8.90
2022-10-11T02:46:42.748Z,8.70
2022-10-11T02:51:44.847Z,9.30
2022-10-11T02:54:16.348Z,8.20
2022-10-11T02:56:47.800Z,10.10
2022-10-11T02:59:19.344Z,8.40
2022-10-11T03:01:50.787Z,8.80
2022-10-11T03:04:22.249Z,8.30
2022-10-11T03:06:53.615Z,7.50
2022-10-11T03:09:25.106Z,8.70
2022-10-11T03:11:56.533Z,6.70
2022-10-11T03:14:28.161Z,7.90
2022-10-11T03:17:17.185Z,7.40
2022-10-11T03:19:51.557Z,8.20
2022-10-11T03:22:23.335Z,6.90
2022-10-11T03:24:57.510Z,6.70
2022-10-11T03:27:32.558Z,7.40
2022-10-11T03:30:04.851Z,6.70
2022-10-11T03:32:36.238Z,6.60
2022-10-11T03:35:09.515Z,7.70
2022-10-11T03:37:41.045Z,6.80
2022-10-11T03:40:14.367Z,8.10
2022-10-11T03:42:45.755Z,6.80
2022-10-11T03:45:17.246Z,8.00
2022-10-11T03:47:48.656Z,10.00
2022-10-11T03:50:20.168Z,9.80
2022-10-11T03:52:51.825Z,8.20
2022-10-11T03:55:23.351Z,7.80
2022-10-11T03:57:54.798Z,7.10
2022-10-11T04:00:26.372Z,10.60
2022-10-11T04:02:57.911Z,6.10
2022-10-11T04:05:29.409Z,10.20
2022-10-11T04:08:00.853Z,7.80
2022-10-11T04:10:32.254Z,8.30
2022-10-11T04:13:04.243Z,8.80
2022-10-11T04:15:35.675Z,8.20
2022-10-11T04:18:07.575Z,11.30
2022-10-11T04:20:39.221Z,7.80
2022-10-11T04:23:10.868Z,11.40
2022-10-11T04:25:42.330Z,17.50
2022-10-11T04:28:13.879Z,46.20
2022-10-11T04:30:45.484Z,40.00
2022-10-11T04:33:16.996Z,31.80
2022-10-11T04:35:48.401Z,14.20
2022-10-11T04:38:19.885Z,9.00
2022-10-11T04:40:51.451Z,11.80
2022-10-11T04:43:23.104Z,10.20
2022-10-11T04:45:55.585Z,13.80
2022-10-11T04:48:27.297Z,11.80
2022-10-11T04:50:58.728Z,12.90
2022-10-11T04:53:30.460Z,10.40
2022-10-11T04:56:04.924Z,12.30
2022-10-11T04:58:37.874Z,11.50
2022-10-11T05:01:09.841Z,12.70
2022-10-11T05:03:41.301Z,11.50
2022-10-11T05:06:13.233Z,11.60
2022-10-11T05:08:45.115Z,13.80
2022-10-11T05:11:18.654Z,13.20
2022-10-11T05:13:50.121Z,16.20
2022-10-11T05:16:21.622Z,15.00
2022-10-11T05:18:53.036Z,12.20
2022-10-11T05:21:26.310Z,14.40
2022-10-11T05:23:58.665Z,10.40
2022-10-11T05:26:30.922Z,11.30
2022-10-11T05:29:02.390Z,13.10
2022-10-11T05:31:33.894Z,15.00
2022-10-11T05:34:05.462Z,13.70
2022-10-11T05:36:36.912Z,13.90
2022-10-11T05:39:08.674Z,14.70
2022-10-11T05:41:40.135Z,18.20
2022-10-11T05:44:11.693Z,16.00
2022-10-11T05:46:43.133Z,15.20
2022-10-11T05:49:14.584Z,14.70
2022-10-11T05:51:46.039Z,18.20
2022-10-11T05:54:17.499Z,14.70
2022-10-11T05:56:49.048Z,12.50
2022-10-11T05:59:20.458Z,17.10
2022-10-11T06:01:51.987Z,15.60
2022-10-11T06:04:23.502Z,16.30
2022-10-11T06:06:55.059Z,17.00
2022-10-11T06:09:26.436Z,17.70
2022-10-11T06:11:58.067Z,15.70
2022-10-11T06:14:29.836Z,16.10
2022-10-11T06:17:01.269Z,15.90
2022-10-11T06:19:32.736Z,14.70
2022-10-11T06:22:04.237Z,15.20
2022-10-11T06:24:35.590Z,17.20
2022-10-11T06:27:08.145Z,13.70
2022-10-11T06:29:39.989Z,12.50
2022-10-11T06:32:13.315Z,14.20
2022-10-11T06:34:44.726Z,13.50
2022-10-11T06:37:16.327Z,15.90
2022-10-11T06:39:47.737Z,17.10
2022-10-11T06:42:19.190Z,19.40
2022-10-11T06:44:50.648Z,15.70
2022-10-11T06:47:22.032Z,12.90
2022-10-11T06:49:53.436Z,20.90
2022-10-11T06:52:24.924Z,22.20
2022-10-11T06:54:56.320Z,24.60
2022-10-11T06:57:28.785Z,20.40
2022-10-11T07:00:00.399Z,21.20
2022-10-11T07:02:31.845Z,22.30
2022-10-11T07:05:03.292Z,23.80
2022-10-11T07:07:34.648Z,19.30
2022-10-11T07:10:07.204Z,22.10
2022-10-11T07:12:38.780Z,26.80
2022-10-11T07:15:12.932Z,20.90
2022-10-11T07:17:44.350Z,21.00
2022-10-11T07:20:16.007Z,16.50
2022-10-11T07:22:47.469Z,14.40
2022-10-11T07:25:19.022Z,20.00
2022-10-11T07:27:50.415Z,15.00
2022-10-11T07:30:22.131Z,18.10
2022-10-11T07:32:53.524Z,16.60
2022-10-11T07:35:25.543Z,16.00
2022-10-11T07:37:56.955Z,14.60
2022-10-11T07:40:28.659Z,17.00
2022-10-11T07:43:00.993Z,13.40
2022-10-11T07:45:32.576Z,12.50
2022-10-11T07:48:03.954Z,12.90
2022-10-11T07:50:35.690Z,15.50
2022-10-11T07:53:07.122Z,13.60
2022-10-11T07:55:40.293Z,13.80
2022-10-11T07:58:13.328Z,17.40
2022-10-11T08:00:44.744Z,14.80
2022-10-11T08:03:16.229Z,16.60
2022-10-11T08:05:47.655Z,16.20
2022-10-11T08:08:19.118Z,14.30
2022-10-11T08:10:50.706Z,12.10
2022-10-11T08:13:22.114Z,13.60
2022-10-11T08:15:54.049Z,11.60
2022-10-11T08:18:25.966Z,14.00
2022-10-11T08:20:57.436Z,9.00
2022-10-11T08:23:28.976Z,9.30
2022-10-11T08:26:00.727Z,10.40
2022-10-11T08:28:32.655Z,12.20
2022-10-11T08:31:04.770Z,11.80
2022-10-11T08:33:36.226Z,11.40
2022-10-11T08:36:10.213Z,10.70
2022-10-11T08:38:43.222Z,9.70
2022-10-11T08:41:30.572Z,10.10
2022-10-11T08:44:15.521Z,13.70
2022-10-11T08:46:56.920Z,12.00
2022-10-11T08:49:34.611Z,14.20
2022-10-11T08:52:12.408Z,12.90
2022-10-11T08:54:49.485Z,8.70
2022-10-11T08:57:23.866Z,11.50
2022-10-11T08:59:57.744Z,8.20
2022-10-11T09:03:06.868Z,8.40
2022-10-11T09:05:40.759Z,11.30
2022-10-11T09:08:22.239Z,13.90
2022-10-11T09:11:05.683Z,11.70
2022-10-11T09:13:58.846Z,8.90
2022-10-11T09:16:40.324Z,11.10
2022-10-11T09:19:33.347Z,10.40
2022-10-11T09:22:15.998Z,9.30
2022-10-11T09:25:01.563Z,16.80
2022-10-11T09:28:01.149Z,16.90
2022-10-11T09:30:29.058Z,12.90
2022-10-11T09:33:11.888Z,13.00
2022-10-11T09:35:47.547Z,12.10
2022-10-11T09:38:36.711Z,9.80
2022-10-11T09:41:16.253Z,12.30
2022-10-11T09:43:51.487Z,8.00
2022-10-11T09:46:30.822Z,11.20
2022-10-11T09:49:04.948Z,11.30
2022-10-11T09:54:10.512Z,8.90
2022-10-11T09:56:46.623Z,9.70
2022-10-11T09:59:30.685Z,10.20
2022-10-11T10:02:24.709Z,12.00
2022-10-11T10:05:05.403Z,11.50
2022-10-11T10:07:39.520Z,10.60
2022-10-11T10:10:29.588Z,10.30
2022-10-11T10:13:03.932Z,12.10
2022-10-11T10:15:38.050Z,10.20
2022-10-11T10:18:19.938Z,9.60
2022-10-11T10:20:55.849Z,9.30
2022-10-11T10:23:31.413Z,9.90
2022-10-11T10:26:18.866Z,9.50
2022-10-11T10:29:03.379Z,8.30
2022-10-11T10:32:01.932Z,10.10
2022-10-11T10:34:35.183Z,10.30
2022-10-11T10:37:14.211Z,8.60
2022-10-11T10:39:49.363Z,9.40
2022-10-11T10:42:22.359Z,8.20
2022-10-11T10:44:58.722Z,10.10
2022-10-11T10:47:46.144Z,7.80
2022-10-11T10:50:24.599Z,8.80
2022-10-11T10:53:15.458Z,8.80
2022-10-11T10:55:52.867Z,6.10
2022-10-11T10:58:43.446Z,9.10
2022-10-11T11:01:21.908Z,6.20
2022-10-11T11:03:58.935Z,5.60
2022-10-11T11:06:37.783Z,5.30
2022-10-11T11:09:29.395Z,6.70
2022-10-11T11:12:15.187Z,4.60
2022-10-11T11:14:56.567Z,5.60
2022-10-11T11:17:40.717Z,4.40
2022-10-11T11:23:02.108Z,7.40
2022-10-11T11:25:44.885Z,4.60
2022-10-11T11:28:42.611Z,10.60
2022-10-11T11:31:27.393Z,6.50
2022-10-11T11:34:06.320Z,5.00
2022-10-11T11:36:46.992Z,5.50
2022-10-11T11:39:21.849Z,6.10
2022-10-11T11:41:59.423Z,5.50
2022-10-11T11:44:37.122Z,5.40
2022-10-11T11:47:13.377Z,6.70
2022-10-11T11:49:49.336Z,6.30
2022-10-11T11:52:28.032Z,7.40
2022-10-11T11:55:06.544Z,6.10
2022-10-11T11:57:54.943Z,5.90
2022-10-11T12:00:30.891Z,4.40
2022-10-11T12:03:04.859Z,8.00
2022-10-11T12:05:37.946Z,6.10
2022-10-11T12:08:25.849Z,4.30
2022-10-11T12:11:04.448Z,3.70
2022-10-11T12:13:38.917Z,4.10
2022-10-11T12:16:15.599Z,2.50
2022-10-11T12:19:02.051Z,22.00
2022-10-11T12:21:36.051Z,6.00
2022-10-11T12:24:23.594Z,3.50
2022-10-11T12:26:58.651Z,3.30
2022-10-11T12:29:49.743Z,4.40
2022-10-11T12:32:52.128Z,3.50
2022-10-11T12:35:48.649Z,4.00
2022-10-11T12:38:23.386Z,3.80
2022-10-11T12:40:57.248Z,3.20
2022-10-11T12:43:57.301Z,3.70
2022-10-11T12:46:58.829Z,7.70
2022-10-11T12:49:42.024Z,4.50
2022-10-11T12:52:30.360Z,3.50
2022-10-11T12:55:31.300Z,3.50
2022-10-11T12:58:30.117Z,2.80
2022-10-11T13:01:35.617Z,2.80
2022-10-11T13:04:10.974Z,5.90
2022-10-11T13:06:49.499Z,7.80
2022-10-11T13:09:29.754Z,3.60
2022-10-11T13:12:05.513Z,3.80
2022-10-11T13:14:43.621Z,4.20
2022-10-11T13:17:21.946Z,4.50
2022-10-11T13:20:02.830Z,4.50
2022-10-11T13:22:39.378Z,3.80
2022-10-11T13:25:16.069Z,11.50
2022-10-11T13:27:49.251Z,3.60
2022-10-11T13:30:26.031Z,3.10
2022-10-11T13:32:58.959Z,3.10
2022-10-11T13:35:34.535Z,5.60
2022-10-11T13:38:10.388Z,3.90
2022-10-11T13:40:42.074Z,3.10
2022-10-11T13:43:15.932Z,3.60
2022-10-11T13:45:47.744Z,4.30
2022-10-11T13:48:19.554Z,8.60
2022-10-11T13:51:07.888Z,7.10
2022-10-11T13:53:39.412Z,5.20
2022-10-11T13:56:12.629Z,5.20
2022-10-11T13:58:48.589Z,3.50
2022-10-11T14:01:23.354Z,4.10
2022-10-11T14:04:00.424Z,4.20
2022-10-11T14:06:44.213Z,4.40
2022-10-11T14:09:27.755Z,2.40
2022-10-11T14:12:33.243Z,2.90
2022-10-11T14:15:06.303Z,4.90
2022-10-11T14:17:44.835Z,3.40
2022-10-11T14:20:21.192Z,3.30
2022-10-11T14:22:55.089Z,3.70
2022-10-11T14:25:26.624Z,4.30
2022-10-11T14:27:58.551Z,2.60
2022-10-11T14:30:31.930Z,2.80
2022-10-11T14:33:04.020Z,4.10
2022-10-11T14:35:35.621Z,2.90
2022-10-11T14:38:07.169Z,3.80
2022-10-11T14:40:38.589Z,4.90
2022-10-11T14:43:10.105Z,2.90
2022-10-11T14:45:41.659Z,2.90
2022-10-11T14:48:13.274Z,3.20
2022-10-11T14:50:48.124Z,4.50
2022-10-11T14:53:19.645Z,6.40
2022-10-11T14:55:51.239Z,4.50
2022-10-11T14:58:22.670Z,5.90
2022-10-11T15:00:54.126Z,7.80
2022-10-11T15:03:25.683Z,4.30
2022-10-11T15:05:57.249Z,4.20
2022-10-11T15:08:28.805Z,3.10
2022-10-11T15:11:00.361Z,5.70
2022-10-11T15:13:32.012Z,4.60
2022-10-11T15:16:03.827Z,4.70
2022-10-11T15:18:35.639Z,6.20
2022-10-11T15:21:07.920Z,4.20
2022-10-11T15:23:39.324Z,5.50
2022-10-11T15:26:14.543Z,4.80
2022-10-11T15:28:46.704Z,3.70
2022-10-11T15:31:18.907Z,4.10
2022-10-11T15:33:51.077Z,5.40
2022-10-11T15:36:24.133Z,4.90
2022-10-11T15:38:55.548Z,5.90
2022-10-11T15:41:27.325Z,5.00
2022-10-11T15:43:58.750Z,6.70
2022-10-11T15:46:30.206Z,6.60
2022-10-11T15:49:06.536Z,7.30
2022-10-11T15:51:38.275Z,4.50
2022-10-11T15:54:10.121Z,4.60
2022-10-11T15:56:41.595Z,7.40
2022-10-11T15:59:13.340Z,7.40
2022-10-11T16:01:44.973Z,7.70
2022-10-11T16:04:16.449Z,7.50
2022-10-11T16:06:48.100Z,8.90
2022-10-11T16:09:19.617Z,11.10
2022-10-11T16:11:51.057Z,11.50
2022-10-11T16:14:22.480Z,15.90
2022-10-11T16:16:53.958Z,19.40
2022-10-11T16:19:25.396Z,20.70
2022-10-11T16:21:56.929Z,23.30
2022-10-11T16:24:28.366Z,23.60
2022-10-11T16:26:59.770Z,19.90
2022-10-11T16:29:31.585Z,19.70
2022-10-11T16:32:03.148Z,21.50
2022-10-11T16:34:35.409Z,20.00
2022-10-11T16:37:06.863Z,19.10
2022-10-11T16:39:38.327Z,23.00
2022-10-11T16:42:09.752Z,22.20
2022-10-11T16:44:41.751Z,26.70
2022-10-11T16:47:13.300Z,24.60
2022-10-11T16:49:46.023Z,25.10
2022-10-11T16:52:18.047Z,24.00
2022-10-11T16:54:49.977Z,26.60
2022-10-11T16:57:21.768Z,22.80
2022-10-11T16:59:53.530Z,27.80
2022-10-11T17:02:32.088Z,25.50
2022-10-11T17:05:04.209Z,22.40
2022-10-11T17:07:37.208Z,22.80
2022-10-11T17:10:10.697Z,24.50
2022-10-11T17:12:46.524Z,24.30
2022-10-11T17:15:22.045Z,23.00
2022-10-11T17:17:56.231Z,24.40
2022-10-11T17:20:27.697Z,20.40
2022-10-11T17:22:59.231Z,32.00
2022-10-11T17:25:30.815Z,27.40
2022-10-11T17:28:02.456Z,30.00
2022-10-11T17:30:34.011Z,26.70
2022-10-11T17:33:06.169Z,27.20
2022-10-11T17:35:37.591Z,21.60
2022-10-11T17:38:09.072Z,21.40
2022-10-11T17:40:40.524Z,27.40
2022-10-11T17:43:12.088Z,28.30
2022-10-11T17:45:43.521Z,25.20
2022-10-11T17:48:14.982Z,24.80
2022-10-11T17:50:50.505Z,19.50
2022-10-11T17:53:22.499Z,25.00
2022-10-11T17:55:54.402Z,23.80
2022-10-11T17:58:27.041Z,26.40
2022-10-11T18:01:04.621Z,28.80
2022-10-11T18:03:37.029Z,32.40
2022-10-11T18:06:10.684Z,35.80
2022-10-11T18:11:16.898Z,37.90
2022-10-11T18:13:50.547Z,36.90
2022-10-11T18:16:24.113Z,41.10
2022-10-11T18:18:57.488Z,39.70
2022-10-11T18:21:34.363Z,39.30
2022-10-11T18:24:10.875Z,39.10
2022-10-11T18:26:42.717Z,36.30
2022-10-11T18:29:15.099Z,37.20
2022-10-11T18:31:46.950Z,34.10
2022-10-11T18:34:18.379Z,36.00
2022-10-11T18:36:49.865Z,37.60
2022-10-11T18:39:22.163Z,33.60
2022-10-11T18:41:53.665Z,34.40
2022-10-11T18:44:25.439Z,33.20
2022-10-11T18:46:56.841Z,37.70
2022-10-11T18:49:28.558Z,44.90
2022-10-11T18:52:00.818Z,42.20
2022-10-11T18:54:35.236Z,38.80
2022-10-11T18:57:06.799Z,44.80
2022-10-11T18:59:38.504Z,39.30
2022-10-11T19:02:11.402Z,41.90
2022-10-11T19:04:42.887Z,39.70
2022-10-11T19:07:14.290Z,41.90
2022-10-11T19:09:47.125Z,41.90
2022-10-11T19:12:19.306Z,44.80
2022-10-11T19:14:51.359Z,46.70
2022-10-11T19:17:23.047Z,41.40
2022-10-11T19:19:54.864Z,41.30
2022-10-11T19:22:26.418Z,44.10
2022-10-11T19:24:57.839Z,48.80
2022-10-11T19:27:29.440Z,53.20
2022-10-11T19:30:01.403Z,48.10
2022-10-11T19:32:32.943Z,56.80
2022-10-11T19:35:04.506Z,52.90
2022-10-11T19:37:35.976Z,44.80
2022-10-11T19:40:09.834Z,42.80
2022-10-11T19:42:41.311Z,45.10
2022-10-11T19:45:13.442Z,43.90
2022-10-11T19:47:44.847Z,50.80
2022-10-11T19:50:16.526Z,51.90
2022-10-11T19:52:47.970Z,51.20
2022-10-11T19:55:19.397Z,53.00
2022-10-11T19:57:50.819Z,50.60
2022-10-11T20:00:22.514Z,49.10
2022-10-11T20:02:53.843Z,52.50
2022-10-11T20:05:25.309Z,52.20
2022-10-11T20:07:56.690Z,46.90
2022-10-11T20:10:28.195Z,50.90
2022-10-11T20:12:59.757Z,49.00
2022-10-11T20:15:31.141Z,52.30
2022-10-11T20:18:02.539Z,56.70
2022-10-11T20:20:33.997Z,65.30
2022-10-11T20:23:05.461Z,64.40
2022-10-11T20:25:36.876Z,70.30
2022-10-11T20:28:08.482Z,71.10
2022-10-11T20:30:44.402Z,56.60
2022-10-11T20:33:15.769Z,58.30
2022-10-11T20:35:57.145Z,50.80
2022-10-11T20:38:29.412Z,58.10
2022-10-11T20:41:05.592Z,55.30
2022-10-11T20:43:37.177Z,52.90
2022-10-11T20:46:10.681Z,60.00
2022-10-11T20:48:42.808Z,61.50
2022-10-11T20:51:14.247Z,61.20
2022-10-11T20:53:45.706Z,70.80
2022-10-11T20:56:19.414Z,71.70
2022-10-11T21:01:24.237Z,60.60
2022-10-11T21:03:57.862Z,61.70
2022-10-11T21:09:00.344Z,61.40
2022-10-11T21:11:33.505Z,65.10
2022-10-11T21:14:07.184Z,62.60
2022-10-11T21:16:38.607Z,54.50
2022-10-11T21:19:13.214Z,64.80
2022-10-11T21:21:50.968Z,65.50
2022-10-11T21:24:24.948Z,68.10
2022-10-11T21:27:00.473Z,69.70
2022-10-11T21:29:32.376Z,69.20
2022-10-11T21:32:03.897Z,69.00
2022-10-11T21:34:35.357Z,72.10
2022-10-11T21:37:06.894Z,67.70
2022-10-11T21:39:38.357Z,67.10
2022-10-11T21:42:09.763Z,77.90
2022-10-11T21:44:43.454Z,68.20
2022-10-11T21:49:47.866Z,85.10
2022-10-11T21:52:19.254Z,95.90
2022-10-11T21:54:50.741Z,94.90
2022-10-11T21:57:22.201Z,89.40
2022-10-11T21:59:53.655Z,82.00
2022-10-11T22:02:28.173Z,91.40
2022-10-11T22:04:59.726Z,88.80
2022-10-11T22:07:31.301Z,93.10
2022-10-11T22:10:02.857Z,88.50
2022-10-11T22:12:34.804Z,82.40
2022-10-11T22:15:08.363Z,86.70
2022-10-11T22:17:39.932Z,89.90
2022-10-11T22:20:16.861Z,87.00
2022-10-11T22:22:48.485Z,81.50
2022-10-11T22:25:20.165Z,81.90
2022-10-11T22:27:51.667Z,85.10
2022-10-11T22:30:23.650Z,76.00
2022-10-11T22:32:55.239Z,73.10
2022-10-11T22:35:27.010Z,71.00
2022-10-11T22:37:58.618Z,77.10
2022-10-11T22:40:30.183Z,73.20
2022-10-11T22:43:02.037Z,64.30
2022-10-11T22:45:33.670Z,82.00
2022-10-11T22:48:05.531Z,84.50
2022-10-11T22:50:37.220Z,78.10
2022-10-11T22:53:09.243Z,80.30
2022-10-11T22:55:41.253Z,96.80
2022-10-11T22:58:12.841Z,170.70
2022-10-11T23:00:44.902Z,123.10
